sensor_id;sensor_type;location;lat;lon;timestamp;temperature;humidity
75190;HTU21D;69198;44.694;37.790;2023-06-22T00:00:46;21.90;77.13
75190;HTU21D;69198;44.694;37.790;2023-06-22T00:01:47;21.91;76.96
75190;HTU21D;69198;44.694;37.790;2023-06-22T00:02:48;21.92;77.02
75190;HTU21D;69198;44.694;37.790;2023-06-22T00:03:49;21.94;76.82
75190;HTU21D;69198;44.694;37.790;2023-06-22T00:04:50;21.97;76.53
75190;HTU21D;69198;44.694;37.790;2023-06-22T00:05:52;21.98;76.60
75190;HTU21D;69198;44.694;37.790;2023-06-22T00:06:53;21.98;76.70
75190;HTU21D;69198;44.694;37.790;2023-06-22T00:07:54;21.98;76.47
75190;HTU21D;69198;44.694;37.790;2023-06-22T00:08:55;22.02;76.39
75190;HTU21D;69198;44.694;37.790;2023-06-22T00:09:56;22.05;76.27
75190;HTU21D;69198;44.694;37.790;2023-06-22T00:10:57;22.06;76.07
75190;HTU21D;69198;44.694;37.790;2023-06-22T00:11:58;22.09;75.60
75190;HTU21D;69198;44.694;37.790;2023-06-22T00:12:59;22.12;75.31
75190;HTU21D;69198;44.694;37.790;2023-06-22T00:14:00;22.12;75.60
75190;HTU21D;69198;44.694;37.790;2023-06-22T00:15:01;22.14;75.34
75190;HTU21D;69198;44.694;37.790;2023-06-22T00:16:02;22.16;74.89
75190;HTU21D;69198;44.694;37.790;2023-06-22T00:17:03;22.19;74.61
75190;HTU21D;69198;44.694;37.790;2023-06-22T00:18:05;22.20;74.80
75190;HTU21D;69198;44.694;37.790;2023-06-22T00:19:07;22.20;75.06
75190;HTU21D;69198;44.694;37.790;2023-06-22T00:20:08;22.20;75.24
75190;HTU21D;69198;44.694;37.790;2023-06-22T00:21:10;22.20;75.01
75190;HTU21D;69198;44.694;37.790;2023-06-22T00:22:13;22.18;74.90
75190;HTU21D;69198;44.694;37.790;2023-06-22T00:23:14;22.18;74.75
75190;HTU21D;69198;44.694;37.790;2023-06-22T00:24:16;22.16;74.94
75190;HTU21D;69198;44.694;37.790;2023-06-22T00:25:17;22.14;75.05
75190;HTU21D;69198;44.694;37.790;2023-06-22T00:26:19;22.11;75.20
75190;HTU21D;69198;44.694;37.790;2023-06-22T00:27:20;22.11;75.25
75190;HTU21D;69198;44.694;37.790;2023-06-22T00:28:21;22.08;75.24
75190;HTU21D;69198;44.694;37.790;2023-06-22T00:29:22;22.08;74.84
75190;HTU21D;69198;44.694;37.790;2023-06-22T00:30:23;22.07;74.80
75190;HTU21D;69198;44.694;37.790;2023-06-22T00:31:24;22.05;74.83
75190;HTU21D;69198;44.694;37.790;2023-06-22T00:32:28;22.04;74.53
75190;HTU21D;69198;44.694;37.790;2023-06-22T00:33:29;22.04;74.61
75190;HTU21D;69198;44.694;37.790;2023-06-22T00:34:30;22.07;74.56
75190;HTU21D;69198;44.694;37.790;2023-06-22T00:35:34;22.07;74.47
75190;HTU21D;69198;44.694;37.790;2023-06-22T00:36:36;22.06;74.02
75190;HTU21D;69198;44.694;37.790;2023-06-22T00:37:38;22.08;73.59
75190;HTU21D;69198;44.694;37.790;2023-06-22T00:38:42;22.07;74.09
75190;HTU21D;69198;44.694;37.790;2023-06-22T00:39:43;22.07;74.12
75190;HTU21D;69198;44.694;37.790;2023-06-22T00:40:45;22.06;73.93
75190;HTU21D;69198;44.694;37.790;2023-06-22T00:41:46;22.06;74.17
75190;HTU21D;69198;44.694;37.790;2023-06-22T00:42:47;22.05;74.25
75190;HTU21D;69198;44.694;37.790;2023-06-22T00:43:48;22.04;74.36
75190;HTU21D;69198;44.694;37.790;2023-06-22T00:44:49;22.03;74.33
75190;HTU21D;69198;44.694;37.790;2023-06-22T00:45:51;22.04;73.77
75190;HTU21D;69198;44.694;37.790;2023-06-22T00:46:53;22.05;73.64
75190;HTU21D;69198;44.694;37.790;2023-06-22T00:47:58;22.06;73.65
75190;HTU21D;69198;44.694;37.790;2023-06-22T00:48:59;22.10;73.42
75190;HTU21D;69198;44.694;37.790;2023-06-22T00:50:03;22.09;73.38
75190;HTU21D;69198;44.694;37.790;2023-06-22T00:51:07;22.09;73.02
75190;HTU21D;69198;44.694;37.790;2023-06-22T00:52:09;22.09;73.01
75190;HTU21D;69198;44.694;37.790;2023-06-22T00:53:14;22.10;72.89
75190;HTU21D;69198;44.694;37.790;2023-06-22T00:54:15;22.10;72.86
75190;HTU21D;69198;44.694;37.790;2023-06-22T00:55:16;22.10;73.36
75190;HTU21D;69198;44.694;37.790;2023-06-22T00:56:18;22.10;73.28
75190;HTU21D;69198;44.694;37.790;2023-06-22T00:57:20;22.09;73.35
75190;HTU21D;69198;44.694;37.790;2023-06-22T00:58:22;22.11;73.25
75190;HTU21D;69198;44.694;37.790;2023-06-22T00:59:23;22.10;72.86
75190;HTU21D;69198;44.694;37.790;2023-06-22T01:00:26;22.10;72.87
75190;HTU21D;69198;44.694;37.790;2023-06-22T01:01:27;22.12;72.02
75190;HTU21D;69198;44.694;37.790;2023-06-22T01:02:31;22.14;72.00
75190;HTU21D;69198;44.694;37.790;2023-06-22T01:03:32;22.14;72.06
75190;HTU21D;69198;44.694;37.790;2023-06-22T01:04:37;22.17;71.93
75190;HTU21D;69198;44.694;37.790;2023-06-22T01:05:41;22.18;71.98
75190;HTU21D;69198;44.694;37.790;2023-06-22T01:06:52;22.18;72.07
75190;HTU21D;69198;44.694;37.790;2023-06-22T01:09:32;22.13;71.86
75190;HTU21D;69198;44.694;37.790;2023-06-22T01:10:52;22.10;72.09
75190;HTU21D;69198;44.694;37.790;2023-06-22T01:11:58;22.10;72.39
75190;HTU21D;69198;44.694;37.790;2023-06-22T01:13:08;22.08;72.51
75190;HTU21D;69198;44.694;37.790;2023-06-22T01:14:24;22.03;72.95
75190;HTU21D;69198;44.694;37.790;2023-06-22T01:15:40;22.03;72.76
75190;HTU21D;69198;44.694;37.790;2023-06-22T01:16:44;21.98;72.90
75190;HTU21D;69198;44.694;37.790;2023-06-22T01:17:46;22.01;73.09
75190;HTU21D;69198;44.694;37.790;2023-06-22T01:18:52;22.02;73.51
75190;HTU21D;69198;44.694;37.790;2023-06-22T01:19:57;21.98;73.29
75190;HTU21D;69198;44.694;37.790;2023-06-22T01:21:00;21.96;73.54
75190;HTU21D;69198;44.694;37.790;2023-06-22T01:22:05;21.95;73.53
75190;HTU21D;69198;44.694;37.790;2023-06-22T01:23:21;21.93;74.14
75190;HTU21D;69198;44.694;37.790;2023-06-22T01:24:45;21.91;74.71
75190;HTU21D;69198;44.694;37.790;2023-06-22T01:26:18;21.91;74.41
75190;HTU21D;69198;44.694;37.790;2023-06-22T01:28:54;21.87;74.98
75190;HTU21D;69198;44.694;37.790;2023-06-22T01:29:57;21.85;74.80
75190;HTU21D;69198;44.694;37.790;2023-06-22T01:31:02;21.84;74.47
75190;HTU21D;69198;44.694;37.790;2023-06-22T01:32:07;21.83;75.13
75190;HTU21D;69198;44.694;37.790;2023-06-22T01:33:11;21.85;74.54
75190;HTU21D;69198;44.694;37.790;2023-06-22T01:34:14;21.87;74.30
75190;HTU21D;69198;44.694;37.790;2023-06-22T01:35:16;21.91;74.06
75190;HTU21D;69198;44.694;37.790;2023-06-22T01:36:18;21.94;74.35
75190;HTU21D;69198;44.694;37.790;2023-06-22T01:37:21;21.94;74.25
75190;HTU21D;69198;44.694;37.790;2023-06-22T01:38:26;21.94;73.94
75190;HTU21D;69198;44.694;37.790;2023-06-22T01:39:29;21.92;74.25
75190;HTU21D;69198;44.694;37.790;2023-06-22T01:40:32;21.92;75.05
75190;HTU21D;69198;44.694;37.790;2023-06-22T01:41:37;21.92;75.00
75190;HTU21D;69198;44.694;37.790;2023-06-22T01:42:39;21.93;74.96
75190;HTU21D;69198;44.694;37.790;2023-06-22T01:43:42;21.90;74.84
75190;HTU21D;69198;44.694;37.790;2023-06-22T01:44:43;21.90;74.89
75190;HTU21D;69198;44.694;37.790;2023-06-22T01:45:45;21.90;74.96
75190;HTU21D;69198;44.694;37.790;2023-06-22T01:46:48;21.91;75.26
75190;HTU21D;69198;44.694;37.790;2023-06-22T01:47:49;21.92;75.19
75190;HTU21D;69198;44.694;37.790;2023-06-22T01:48:50;21.92;75.00
75190;HTU21D;69198;44.694;37.790;2023-06-22T01:49:52;21.90;75.15
75190;HTU21D;69198;44.694;37.790;2023-06-22T01:50:55;21.87;75.20
75190;HTU21D;69198;44.694;37.790;2023-06-22T01:51:56;21.85;75.13
75190;HTU21D;69198;44.694;37.790;2023-06-22T01:52:57;21.83;74.83
75190;HTU21D;69198;44.694;37.790;2023-06-22T01:54:01;21.88;74.46
75190;HTU21D;69198;44.694;37.790;2023-06-22T01:55:03;21.90;74.30
75190;HTU21D;69198;44.694;37.790;2023-06-22T01:56:05;21.91;73.95
75190;HTU21D;69198;44.694;37.790;2023-06-22T01:57:09;21.88;73.99
75190;HTU21D;69198;44.694;37.790;2023-06-22T01:58:11;21.87;73.97
75190;HTU21D;69198;44.694;37.790;2023-06-22T01:59:32;21.85;74.21
75190;HTU21D;69198;44.694;37.790;2023-06-22T02:00:38;21.81;74.25
75190;HTU21D;69198;44.694;37.790;2023-06-22T02:01:50;21.78;74.42
75190;HTU21D;69198;44.694;37.790;2023-06-22T02:03:05;21.74;74.44
75190;HTU21D;69198;44.694;37.790;2023-06-22T02:04:13;21.72;74.38
75190;HTU21D;69198;44.694;37.790;2023-06-22T02:05:17;21.68;74.38
75190;HTU21D;69198;44.694;37.790;2023-06-22T02:06:31;21.69;74.41
75190;HTU21D;69198;44.694;37.790;2023-06-22T02:07:41;21.68;74.89
75190;HTU21D;69198;44.694;37.790;2023-06-22T02:08:48;21.69;74.91
75190;HTU21D;69198;44.694;37.790;2023-06-22T02:09:52;21.67;74.76
75190;HTU21D;69198;44.694;37.790;2023-06-22T02:10:57;21.65;74.84
75190;HTU21D;69198;44.694;37.790;2023-06-22T02:12:00;21.62;74.83
75190;HTU21D;69198;44.694;37.790;2023-06-22T02:13:06;21.62;74.59
75190;HTU21D;69198;44.694;37.790;2023-06-22T02:14:07;21.63;74.44
75190;HTU21D;69198;44.694;37.790;2023-06-22T02:15:10;21.63;74.32
75190;HTU21D;69198;44.694;37.790;2023-06-22T02:16:13;21.62;74.31
75190;HTU21D;69198;44.694;37.790;2023-06-22T02:17:17;21.65;74.45
75190;HTU21D;69198;44.694;37.790;2023-06-22T02:18:18;21.74;74.43
75190;HTU21D;69198;44.694;37.790;2023-06-22T02:19:24;21.84;74.68
75190;HTU21D;69198;44.694;37.790;2023-06-22T02:20:27;21.95;74.35
75190;HTU21D;69198;44.694;37.790;2023-06-22T02:21:28;22.05;74.25
75190;HTU21D;69198;44.694;37.790;2023-06-22T02:22:29;22.18;73.88
75190;HTU21D;69198;44.694;37.790;2023-06-22T02:23:30;22.33;73.25
75190;HTU21D;69198;44.694;37.790;2023-06-22T02:24:36;22.48;72.86
75190;HTU21D;69198;44.694;37.790;2023-06-22T02:25:37;22.58;72.57
75190;HTU21D;69198;44.694;37.790;2023-06-22T02:26:38;22.70;71.77
75190;HTU21D;69198;44.694;37.790;2023-06-22T02:27:43;22.82;71.21
75190;HTU21D;69198;44.694;37.790;2023-06-22T02:28:44;22.93;70.81
75190;HTU21D;69198;44.694;37.790;2023-06-22T02:29:46;23.01;70.59
75190;HTU21D;69198;44.694;37.790;2023-06-22T02:30:47;23.07;70.57
75190;HTU21D;69198;44.694;37.790;2023-06-22T02:31:48;23.00;71.04
75190;HTU21D;69198;44.694;37.790;2023-06-22T02:32:49;22.91;71.55
75190;HTU21D;69198;44.694;37.790;2023-06-22T02:33:59;22.91;71.63
75190;HTU21D;69198;44.694;37.790;2023-06-22T02:35:01;22.91;71.20
75190;HTU21D;69198;44.694;37.790;2023-06-22T02:36:05;22.98;70.80
75190;HTU21D;69198;44.694;37.790;2023-06-22T02:37:09;23.12;70.07
75190;HTU21D;69198;44.694;37.790;2023-06-22T02:38:14;23.27;69.63
75190;HTU21D;69198;44.694;37.790;2023-06-22T02:39:20;23.37;69.33
75190;HTU21D;69198;44.694;37.790;2023-06-22T02:40:23;23.39;69.18
75190;HTU21D;69198;44.694;37.790;2023-06-22T02:41:25;23.47;68.53
75190;HTU21D;69198;44.694;37.790;2023-06-22T02:42:25;23.58;67.97
75190;HTU21D;69198;44.694;37.790;2023-06-22T02:43:26;23.74;67.27
75190;HTU21D;69198;44.694;37.790;2023-06-22T02:44:27;23.88;66.75
75190;HTU21D;69198;44.694;37.790;2023-06-22T02:45:29;23.96;66.41
75190;HTU21D;69198;44.694;37.790;2023-06-22T02:46:30;24.08;66.07
75190;HTU21D;69198;44.694;37.790;2023-06-22T02:47:31;24.25;65.52
75190;HTU21D;69198;44.694;37.790;2023-06-22T02:48:32;24.40;64.59
75190;HTU21D;69198;44.694;37.790;2023-06-22T02:49:33;24.53;64.24
75190;HTU21D;69198;44.694;37.790;2023-06-22T02:50:34;24.61;64.08
75190;HTU21D;69198;44.694;37.790;2023-06-22T02:51:38;24.70;63.71
75190;HTU21D;69198;44.694;37.790;2023-06-22T02:52:42;24.71;63.59
75190;HTU21D;69198;44.694;37.790;2023-06-22T02:53:43;24.75;63.23
75190;HTU21D;69198;44.694;37.790;2023-06-22T02:54:47;24.86;63.05
75190;HTU21D;69198;44.694;37.790;2023-06-22T02:55:49;24.98;61.73
75190;HTU21D;69198;44.694;37.790;2023-06-22T02:56:50;25.09;61.39
75190;HTU21D;69198;44.694;37.790;2023-06-22T02:57:52;25.24;60.96
75190;HTU21D;69198;44.694;37.790;2023-06-22T02:58:54;25.43;60.31
75190;HTU21D;69198;44.694;37.790;2023-06-22T03:00:03;25.65;59.00
75190;HTU21D;69198;44.694;37.790;2023-06-22T03:01:17;25.86;58.01
75190;HTU21D;69198;44.694;37.790;2023-06-22T03:02:24;26.03;58.00
75190;HTU21D;69198;44.694;37.790;2023-06-22T03:03:27;26.18;57.86
75190;HTU21D;69198;44.694;37.790;2023-06-22T03:04:28;26.30;56.89
75190;HTU21D;69198;44.694;37.790;2023-06-22T03:05:29;26.43;56.50
75190;HTU21D;69198;44.694;37.790;2023-06-22T03:06:33;26.54;56.29
75190;HTU21D;69198;44.694;37.790;2023-06-22T03:07:34;26.67;56.60
75190;HTU21D;69198;44.694;37.790;2023-06-22T03:08:35;26.81;56.52
75190;HTU21D;69198;44.694;37.790;2023-06-22T03:09:37;26.90;56.59
75190;HTU21D;69198;44.694;37.790;2023-06-22T03:10:38;26.93;55.88
75190;HTU21D;69198;44.694;37.790;2023-06-22T03:11:39;26.87;55.76
75190;HTU21D;69198;44.694;37.790;2023-06-22T03:12:41;26.82;55.94
75190;HTU21D;69198;44.694;37.790;2023-06-22T03:13:43;26.82;55.16
75190;HTU21D;69198;44.694;37.790;2023-06-22T03:14:44;26.93;55.15
75190;HTU21D;69198;44.694;37.790;2023-06-22T03:15:45;27.00;54.47
75190;HTU21D;69198;44.694;37.790;2023-06-22T03:16:46;27.13;54.09
75190;HTU21D;69198;44.694;37.790;2023-06-22T03:17:47;27.28;54.34
75190;HTU21D;69198;44.694;37.790;2023-06-22T03:18:48;27.43;54.24
75190;HTU21D;69198;44.694;37.790;2023-06-22T03:19:49;27.53;54.10
75190;HTU21D;69198;44.694;37.790;2023-06-22T03:20:50;27.64;53.64
75190;HTU21D;69198;44.694;37.790;2023-06-22T03:21:51;27.76;52.76
75190;HTU21D;69198;44.694;37.790;2023-06-22T03:22:53;27.90;52.32
75190;HTU21D;69198;44.694;37.790;2023-06-22T03:23:55;28.04;51.57
75190;HTU21D;69198;44.694;37.790;2023-06-22T03:24:56;28.10;51.01
75190;HTU21D;69198;44.694;37.790;2023-06-22T03:25:57;28.13;50.82
75190;HTU21D;69198;44.694;37.790;2023-06-22T03:26:58;28.25;50.50
75190;HTU21D;69198;44.694;37.790;2023-06-22T03:27:59;28.34;49.91
75190;HTU21D;69198;44.694;37.790;2023-06-22T03:29:01;28.41;48.79
75190;HTU21D;69198;44.694;37.790;2023-06-22T03:30:05;28.34;48.21
75190;HTU21D;69198;44.694;37.790;2023-06-22T03:31:06;28.43;47.99
75190;HTU21D;69198;44.694;37.790;2023-06-22T03:32:10;28.69;47.71
75190;HTU21D;69198;44.694;37.790;2023-06-22T03:33:11;28.85;47.72
75190;HTU21D;69198;44.694;37.790;2023-06-22T03:34:12;28.98;47.47
75190;HTU21D;69198;44.694;37.790;2023-06-22T03:35:13;28.72;48.21
75190;HTU21D;69198;44.694;37.790;2023-06-22T03:36:16;28.63;48.41
75190;HTU21D;69198;44.694;37.790;2023-06-22T03:37:19;28.70;48.39
75190;HTU21D;69198;44.694;37.790;2023-06-22T03:38:21;28.71;47.66
75190;HTU21D;69198;44.694;37.790;2023-06-22T03:39:22;28.78;47.34
75190;HTU21D;69198;44.694;37.790;2023-06-22T03:40:24;28.90;47.46
75190;HTU21D;69198;44.694;37.790;2023-06-22T03:41:25;29.06;47.07
75190;HTU21D;69198;44.694;37.790;2023-06-22T03:42:26;29.09;46.77
75190;HTU21D;69198;44.694;37.790;2023-06-22T03:43:27;29.11;46.10
75190;HTU21D;69198;44.694;37.790;2023-06-22T03:44:30;29.21;45.80
75190;HTU21D;69198;44.694;37.790;2023-06-22T03:45:32;29.37;44.90
75190;HTU21D;69198;44.694;37.790;2023-06-22T03:46:33;29.50;44.74
75190;HTU21D;69198;44.694;37.790;2023-06-22T03:47:34;29.72;44.19
75190;HTU21D;69198;44.694;37.790;2023-06-22T03:48:36;29.96;43.47
75190;HTU21D;69198;44.694;37.790;2023-06-22T03:49:37;30.13;42.74
75190;HTU21D;69198;44.694;37.790;2023-06-22T03:50:38;30.15;42.00
75190;HTU21D;69198;44.694;37.790;2023-06-22T03:51:39;30.13;41.86
75190;HTU21D;69198;44.694;37.790;2023-06-22T03:52:41;30.15;41.86
75190;HTU21D;69198;44.694;37.790;2023-06-22T03:53:41;30.17;41.74
75190;HTU21D;69198;44.694;37.790;2023-06-22T03:54:44;30.32;41.87
75190;HTU21D;69198;44.694;37.790;2023-06-22T03:55:49;30.47;41.59
75190;HTU21D;69198;44.694;37.790;2023-06-22T03:56:53;30.83;41.33
75190;HTU21D;69198;44.694;37.790;2023-06-22T03:57:54;31.15;40.94
75190;HTU21D;69198;44.694;37.790;2023-06-22T03:58:57;31.53;40.18
75190;HTU21D;69198;44.694;37.790;2023-06-22T04:00:01;31.65;39.44
75190;HTU21D;69198;44.694;37.790;2023-06-22T04:01:13;31.76;39.46
75190;HTU21D;69198;44.694;37.790;2023-06-22T04:02:14;31.87;39.00
75190;HTU21D;69198;44.694;37.790;2023-06-22T04:03:15;31.99;38.91
75190;HTU21D;69198;44.694;37.790;2023-06-22T04:04:17;32.11;38.55
75190;HTU21D;69198;44.694;37.790;2023-06-22T04:05:18;32.17;38.20
75190;HTU21D;69198;44.694;37.790;2023-06-22T04:06:19;32.16;38.05
75190;HTU21D;69198;44.694;37.790;2023-06-22T04:07:21;32.17;38.06
75190;HTU21D;69198;44.694;37.790;2023-06-22T04:08:22;32.12;37.90
75190;HTU21D;69198;44.694;37.790;2023-06-22T04:09:23;32.14;37.37
75190;HTU21D;69198;44.694;37.790;2023-06-22T04:10:24;32.28;36.75
75190;HTU21D;69198;44.694;37.790;2023-06-22T04:11:25;32.53;36.46
75190;HTU21D;69198;44.694;37.790;2023-06-22T04:12:26;32.75;36.23
75190;HTU21D;69198;44.694;37.790;2023-06-22T04:13:27;32.86;35.76
75190;HTU21D;69198;44.694;37.790;2023-06-22T04:14:28;32.96;35.55
75190;HTU21D;69198;44.694;37.790;2023-06-22T04:15:29;32.98;35.08
75190;HTU21D;69198;44.694;37.790;2023-06-22T04:16:30;33.01;34.86
75190;HTU21D;69198;44.694;37.790;2023-06-22T04:17:31;33.22;34.71
75190;HTU21D;69198;44.694;37.790;2023-06-22T04:18:31;33.36;33.99
75190;HTU21D;69198;44.694;37.790;2023-06-22T04:19:32;33.31;33.82
75190;HTU21D;69198;44.694;37.790;2023-06-22T04:20:33;33.32;33.59
75190;HTU21D;69198;44.694;37.790;2023-06-22T04:21:34;33.36;33.52
75190;HTU21D;69198;44.694;37.790;2023-06-22T04:22:35;33.40;33.68
75190;HTU21D;69198;44.694;37.790;2023-06-22T04:23:36;33.42;33.46
75190;HTU21D;69198;44.694;37.790;2023-06-22T04:24:37;33.40;33.09
75190;HTU21D;69198;44.694;37.790;2023-06-22T04:25:39;33.35;32.95
75190;HTU21D;69198;44.694;37.790;2023-06-22T04:26:40;33.32;32.93
75190;HTU21D;69198;44.694;37.790;2023-06-22T04:27:42;33.33;32.90
75190;HTU21D;69198;44.694;37.790;2023-06-22T04:28:43;33.45;32.86
75190;HTU21D;69198;44.694;37.790;2023-06-22T04:29:52;33.53;32.69
75190;HTU21D;69198;44.694;37.790;2023-06-22T04:30:53;33.53;32.63
75190;HTU21D;69198;44.694;37.790;2023-06-22T04:31:59;33.60;32.45
75190;HTU21D;69198;44.694;37.790;2023-06-22T04:33:06;33.67;32.23
75190;HTU21D;69198;44.694;37.790;2023-06-22T04:34:07;33.67;32.08
75190;HTU21D;69198;44.694;37.790;2023-06-22T04:35:08;33.68;32.02
75190;HTU21D;69198;44.694;37.790;2023-06-22T04:36:09;33.78;32.28
75190;HTU21D;69198;44.694;37.790;2023-06-22T04:37:13;33.99;32.05
75190;HTU21D;69198;44.694;37.790;2023-06-22T04:38:16;34.21;31.65
75190;HTU21D;69198;44.694;37.790;2023-06-22T04:39:17;34.35;31.05
75190;HTU21D;69198;44.694;37.790;2023-06-22T04:40:19;34.46;30.80
75190;HTU21D;69198;44.694;37.790;2023-06-22T04:41:20;34.57;30.61
75190;HTU21D;69198;44.694;37.790;2023-06-22T04:42:28;34.86;30.34
75190;HTU21D;69198;44.694;37.790;2023-06-22T04:43:29;35.05;29.86
75190;HTU21D;69198;44.694;37.790;2023-06-22T04:44:31;35.07;29.72
75190;HTU21D;69198;44.694;37.790;2023-06-22T04:45:32;35.14;29.71
75190;HTU21D;69198;44.694;37.790;2023-06-22T04:46:34;35.26;29.64
75190;HTU21D;69198;44.694;37.790;2023-06-22T04:47:38;35.30;29.36
75190;HTU21D;69198;44.694;37.790;2023-06-22T04:48:40;35.26;29.27
75190;HTU21D;69198;44.694;37.790;2023-06-22T04:49:41;35.18;29.00
75190;HTU21D;69198;44.694;37.790;2023-06-22T04:50:44;35.33;28.90
75190;HTU21D;69198;44.694;37.790;2023-06-22T04:51:45;35.60;28.55
75190;HTU21D;69198;44.694;37.790;2023-06-22T04:52:46;35.83;28.47
75190;HTU21D;69198;44.694;37.790;2023-06-22T04:53:47;35.93;28.35
75190;HTU21D;69198;44.694;37.790;2023-06-22T04:54:48;35.96;28.05
75190;HTU21D;69198;44.694;37.790;2023-06-22T04:55:55;36.08;27.88
75190;HTU21D;69198;44.694;37.790;2023-06-22T04:56:57;36.33;27.58
75190;HTU21D;69198;44.694;37.790;2023-06-22T04:57:57;36.63;27.36
75190;HTU21D;69198;44.694;37.790;2023-06-22T04:59:05;36.62;27.50
75190;HTU21D;69198;44.694;37.790;2023-06-22T05:00:06;36.73;27.45
75190;HTU21D;69198;44.694;37.790;2023-06-22T05:01:17;36.89;27.42
75190;HTU21D;69198;44.694;37.790;2023-06-22T05:02:20;36.72;27.33
75190;HTU21D;69198;44.694;37.790;2023-06-22T05:03:21;36.62;27.29
75190;HTU21D;69198;44.694;37.790;2023-06-22T05:04:22;36.71;27.18
75190;HTU21D;69198;44.694;37.790;2023-06-22T05:05:26;36.89;26.93
75190;HTU21D;69198;44.694;37.790;2023-06-22T05:06:27;37.12;26.65
75190;HTU21D;69198;44.694;37.790;2023-06-22T05:07:28;37.22;26.52
75190;HTU21D;69198;44.694;37.790;2023-06-22T05:08:29;37.11;26.71
75190;HTU21D;69198;44.694;37.790;2023-06-22T05:09:30;36.92;26.92
75190;HTU21D;69198;44.694;37.790;2023-06-22T05:10:32;36.89;27.09
75190;HTU21D;69198;44.694;37.790;2023-06-22T05:11:33;37.02;27.18
75190;HTU21D;69198;44.694;37.790;2023-06-22T05:12:34;37.12;27.20
75190;HTU21D;69198;44.694;37.790;2023-06-22T05:13:35;36.92;26.95
75190;HTU21D;69198;44.694;37.790;2023-06-22T05:14:36;36.72;27.06
75190;HTU21D;69198;44.694;37.790;2023-06-22T05:15:37;36.70;27.20
75190;HTU21D;69198;44.694;37.790;2023-06-22T05:16:44;36.91;27.10
75190;HTU21D;69198;44.694;37.790;2023-06-22T05:17:45;36.96;27.14
75190;HTU21D;69198;44.694;37.790;2023-06-22T05:18:46;37.23;26.94
75190;HTU21D;69198;44.694;37.790;2023-06-22T05:19:47;37.57;26.53
75190;HTU21D;69198;44.694;37.790;2023-06-22T05:20:49;37.64;26.42
75190;HTU21D;69198;44.694;37.790;2023-06-22T05:21:50;37.55;26.29
75190;HTU21D;69198;44.694;37.790;2023-06-22T05:22:51;37.42;26.34
75190;HTU21D;69198;44.694;37.790;2023-06-22T05:23:53;37.38;26.52
75190;HTU21D;69198;44.694;37.790;2023-06-22T05:24:54;37.32;26.80
75190;HTU21D;69198;44.694;37.790;2023-06-22T05:25:55;37.22;26.80
75190;HTU21D;69198;44.694;37.790;2023-06-22T05:26:58;37.14;26.91
75190;HTU21D;69198;44.694;37.790;2023-06-22T05:27:59;37.03;27.00
75190;HTU21D;69198;44.694;37.790;2023-06-22T05:29:01;36.90;27.15
75190;HTU21D;69198;44.694;37.790;2023-06-22T05:30:03;36.88;27.24
75190;HTU21D;69198;44.694;37.790;2023-06-22T05:31:04;37.04;27.15
75190;HTU21D;69198;44.694;37.790;2023-06-22T05:32:06;37.18;26.94
75190;HTU21D;69198;44.694;37.790;2023-06-22T05:33:07;37.17;26.80
75190;HTU21D;69198;44.694;37.790;2023-06-22T05:34:08;37.08;26.77
75190;HTU21D;69198;44.694;37.790;2023-06-22T05:35:09;37.02;26.55
75190;HTU21D;69198;44.694;37.790;2023-06-22T05:36:10;36.96;26.39
75190;HTU21D;69198;44.694;37.790;2023-06-22T05:37:11;37.01;26.45
75190;HTU21D;69198;44.694;37.790;2023-06-22T05:38:13;37.08;26.43
75190;HTU21D;69198;44.694;37.790;2023-06-22T05:39:15;37.07;26.46
75190;HTU21D;69198;44.694;37.790;2023-06-22T05:40:16;37.07;26.62
75190;HTU21D;69198;44.694;37.790;2023-06-22T05:41:17;37.15;27.06
75190;HTU21D;69198;44.694;37.790;2023-06-22T05:42:18;37.22;27.23
75190;HTU21D;69198;44.694;37.790;2023-06-22T05:43:19;37.23;27.50
75190;HTU21D;69198;44.694;37.790;2023-06-22T05:44:20;37.26;27.60
75190;HTU21D;69198;44.694;37.790;2023-06-22T05:45:21;37.31;27.29
75190;HTU21D;69198;44.694;37.790;2023-06-22T05:46:22;37.15;26.62
75190;HTU21D;69198;44.694;37.790;2023-06-22T05:47:23;36.86;26.81
75190;HTU21D;69198;44.694;37.790;2023-06-22T05:48:25;36.63;27.58
75190;HTU21D;69198;44.694;37.790;2023-06-22T05:49:26;36.54;28.03
75190;HTU21D;69198;44.694;37.790;2023-06-22T05:50:33;36.24;27.75
75190;HTU21D;69198;44.694;37.790;2023-06-22T05:51:41;36.15;28.20
75190;HTU21D;69198;44.694;37.790;2023-06-22T05:52:47;36.36;28.17
75190;HTU21D;69198;44.694;37.790;2023-06-22T05:54:24;36.58;28.14
75190;HTU21D;69198;44.694;37.790;2023-06-22T05:55:28;36.48;28.19
75190;HTU21D;69198;44.694;37.790;2023-06-22T05:56:29;36.25;28.74
75190;HTU21D;69198;44.694;37.790;2023-06-22T05:57:30;36.03;28.73
75190;HTU21D;69198;44.694;37.790;2023-06-22T05:58:31;35.92;28.99
75190;HTU21D;69198;44.694;37.790;2023-06-22T05:59:32;35.97;29.05
75190;HTU21D;69198;44.694;37.790;2023-06-22T06:00:36;36.10;29.12
75190;HTU21D;69198;44.694;37.790;2023-06-22T06:01:38;36.07;28.87
75190;HTU21D;69198;44.694;37.790;2023-06-22T06:02:40;35.99;28.68
75190;HTU21D;69198;44.694;37.790;2023-06-22T06:03:44;35.85;28.87
75190;HTU21D;69198;44.694;37.790;2023-06-22T06:04:45;35.65;29.17
75190;HTU21D;69198;44.694;37.790;2023-06-22T06:05:46;35.50;29.04
75190;HTU21D;69198;44.694;37.790;2023-06-22T06:06:48;35.48;29.53
75190;HTU21D;69198;44.694;37.790;2023-06-22T06:07:49;35.50;30.16
75190;HTU21D;69198;44.694;37.790;2023-06-22T06:08:50;35.35;29.68
75190;HTU21D;69198;44.694;37.790;2023-06-22T06:09:51;35.05;29.89
75190;HTU21D;69198;44.694;37.790;2023-06-22T06:10:52;34.92;30.38
75190;HTU21D;69198;44.694;37.790;2023-06-22T06:11:54;34.98;30.76
75190;HTU21D;69198;44.694;37.790;2023-06-22T06:12:56;35.06;30.99
75190;HTU21D;69198;44.694;37.790;2023-06-22T06:13:57;35.12;30.82
75190;HTU21D;69198;44.694;37.790;2023-06-22T06:14:58;35.05;30.32
75190;HTU21D;69198;44.694;37.790;2023-06-22T06:15:59;34.90;30.47
75190;HTU21D;69198;44.694;37.790;2023-06-22T06:17:00;34.91;30.43
75190;HTU21D;69198;44.694;37.790;2023-06-22T06:18:01;34.83;30.73
75190;HTU21D;69198;44.694;37.790;2023-06-22T06:19:05;34.74;30.96
75190;HTU21D;69198;44.694;37.790;2023-06-22T06:20:07;34.62;31.17
75190;HTU21D;69198;44.694;37.790;2023-06-22T06:21:08;34.56;31.38
75190;HTU21D;69198;44.694;37.790;2023-06-22T06:22:09;34.55;31.45
75190;HTU21D;69198;44.694;37.790;2023-06-22T06:23:10;34.55;31.37
75190;HTU21D;69198;44.694;37.790;2023-06-22T06:24:12;34.57;31.48
75190;HTU21D;69198;44.694;37.790;2023-06-22T06:25:13;34.55;31.52
75190;HTU21D;69198;44.694;37.790;2023-06-22T06:26:16;34.48;31.49
75190;HTU21D;69198;44.694;37.790;2023-06-22T06:27:17;34.49;31.73
75190;HTU21D;69198;44.694;37.790;2023-06-22T06:28:19;34.59;31.90